Time;durP1;ratioP1;P1;durP2;ratioP2;P2;SDS_P1;SDS_P2;PMS_P1;PMS_P2;Temp;Humidity;BMP_temperature;BMP_pressure;BME280_temperature;BME280_humidity;BME280_pressure;Samples;Min_cycle;Max_cycle;Signal;HPM_P1;HPM_P2
2021/12/02 00:00:25;;;;;;;4.10;0.47;;;2.90;99.90;;;;;;4993066;28;20171;-59
2021/12/02 00:02:51;;;;;;;3.77;1.00;;;2.90;99.90;;;;;;4992660;28;20179;-60
2021/12/02 00:05:17;;;;;;;3.87;0.80;;;2.90;99.90;;;;;;4993395;28;20555;-60
2021/12/02 00:07:43;;;;;;;5.37;0.90;;;2.90;99.90;;;;;;4992874;28;20283;-59
2021/12/02 00:10:09;;;;;;;2.40;0.50;;;2.80;99.90;;;;;;4993023;28;20163;-58
2021/12/02 00:12:34;;;;;;;4.67;0.73;;;2.80;99.90;;;;;;4992861;28;20302;-59
2021/12/02 00:15:06;;;;;;;3.20;0.70;;;2.70;99.90;;;;;;4992870;28;20179;-60
2021/12/02 00:17:36;;;;;;;5.17;0.73;;;2.70;99.90;;;;;;4992973;28;20254;-59
2021/12/02 00:23:29;;;;;;;5.50;1.43;;;2.60;99.90;;;;;;4993078;28;20228;-59
2021/12/02 00:26:00;;;;;;;3.60;0.77;;;2.60;99.90;;;;;;4992539;28;20182;-59
2021/12/02 00:28:28;;;;;;;4.87;0.87;;;2.60;99.90;;;;;;4992664;28;20195;-59
2021/12/02 00:30:55;;;;;;;8.17;1.13;;;2.60;99.90;;;;;;4992556;28;20195;-58
2021/12/02 00:33:26;;;;;;;3.83;1.10;;;2.50;99.90;;;;;;4992421;28;20211;-59
2021/12/02 00:35:52;;;;;;;4.83;1.27;;;2.50;99.90;;;;;;4992375;28;20180;-59
2021/12/02 00:38:23;;;;;;;4.67;1.07;;;2.50;99.90;;;;;;4992335;28;20175;-60
2021/12/02 00:40:50;;;;;;;5.63;1.10;;;2.40;99.90;;;;;;4992319;28;20195;-59
2021/12/02 00:43:17;;;;;;;10.50;1.00;;;2.40;99.90;;;;;;4992068;28;20200;-59
2021/12/02 00:46:20;;;;;;;5.53;1.00;;;2.30;99.90;;;;;;4992585;28;20183;-60
2021/12/02 00:49:01;;;;;;;3.20;1.10;;;2.20;99.90;;;;;;4990686;28;20225;-60
2021/12/02 00:51:28;;;;;;;5.07;1.10;;;2.30;99.90;;;;;;4992158;28;20698;-59
2021/12/02 00:53:59;;;;;;;4.80;1.13;;;2.20;99.90;;;;;;4992315;28;20262;-58
2021/12/02 00:56:25;;;;;;;4.10;1.20;;;2.30;99.90;;;;;;4992182;28;20183;-59
2021/12/02 00:58:53;;;;;;;6.23;1.20;;;2.20;99.90;;;;;;4992620;28;20179;-59
2021/12/02 01:01:21;;;;;;;4.33;0.83;;;2.20;99.90;;;;;;4992620;28;20187;-59
2021/12/02 01:03:49;;;;;;;4.47;1.10;;;2.20;99.90;;;;;;4993202;28;20222;-59
2021/12/02 01:06:16;;;;;;;3.07;0.90;;;2.20;99.90;;;;;;4993618;28;20684;-59
2021/12/02 01:08:42;;;;;;;3.40;0.90;;;2.20;99.90;;;;;;4992555;28;20193;-59
2021/12/02 01:11:09;;;;;;;6.33;0.97;;;2.20;99.90;;;;;;4992391;28;20484;-58
2021/12/02 01:13:35;;;;;;;8.63;1.00;;;2.20;99.90;;;;;;4992136;28;20179;-58
2021/12/02 01:16:02;;;;;;;6.67;1.70;;;2.20;99.90;;;;;;4992037;28;20613;-58
2021/12/02 01:18:28;;;;;;;7.57;1.10;;;2.10;99.90;;;;;;4991533;28;20167;-58
2021/12/02 01:20:55;;;;;;;4.63;1.00;;;2.00;99.90;;;;;;4991765;28;20175;-58
2021/12/02 01:23:22;;;;;;;6.37;1.20;;;2.00;99.90;;;;;;4991927;28;20202;-58
2021/12/02 01:26:03;;;;;;;5.07;1.27;;;1.90;99.90;;;;;;4992055;28;20193;-59
2021/12/02 01:28:30;;;;;;;5.13;0.90;;;1.80;99.90;;;;;;4993931;28;20187;-62
2021/12/02 01:30:56;;;;;;;2.47;0.90;;;1.80;99.90;;;;;;4993150;28;20210;-58
2021/12/02 01:33:26;;;;;;;3.20;1.00;;;1.70;99.90;;;;;;4992225;28;20210;-58
2021/12/02 01:35:59;;;;;;;4.37;0.90;;;1.70;99.90;;;;;;4992307;28;20234;-58
2021/12/02 01:38:27;;;;;;;4.60;1.00;;;1.60;99.90;;;;;;4991933;28;20649;-58
2021/12/02 01:40:54;;;;;;;2.10;1.00;;;0.90;99.90;;;;;;4992003;28;20207;-58
2021/12/02 01:43:22;;;;;;;5.80;1.00;;;1.60;99.90;;;;;;4991694;28;20177;-58
2021/12/02 01:45:48;;;;;;;10.33;1.23;;;1.50;99.90;;;;;;4991671;28;20171;-58
2021/12/02 01:48:24;;;;;;;4.07;1.00;;;1.50;99.90;;;;;;4991824;28;20172;-58
2021/12/02 01:51:01;;;;;;;4.13;0.97;;;1.50;99.90;;;;;;4991995;28;20190;-58
2021/12/02 01:53:32;;;;;;;7.13;1.10;;;1.50;99.90;;;;;;4992075;28;20195;-58
2021/12/02 01:56:11;;;;;;;2.60;0.87;;;1.60;99.90;;;;;;4991800;28;20665;-59
2021/12/02 01:58:47;;;;;;;2.83;1.13;;;1.60;99.90;;;;;;4990954;28;20257;-58
2021/12/02 02:01:22;;;;;;;6.47;0.70;;;1.70;99.90;;;;;;4991489;28;20171;-58
2021/12/02 02:03:50;;;;;;;8.37;1.07;;;1.60;99.90;;;;;;4990805;28;20218;-61
2021/12/02 02:06:28;;;;;;;6.03;1.00;;;1.50;99.90;;;;;;4991424;28;20178;-60
2021/12/02 02:08:56;;;;;;;2.30;0.90;;;1.40;99.90;;;;;;5006797;28;20539;-60
2021/12/02 02:11:28;;;;;;;4.70;1.10;;;1.20;99.90;;;;;;4991745;28;20258;-59
2021/12/02 02:13:55;;;;;;;3.37;0.70;;;1.20;99.90;;;;;;4991746;28;20186;-60
2021/12/02 02:16:21;;;;;;;8.00;0.90;;;1.20;99.90;;;;;;4991479;28;20167;-60
2021/12/02 02:18:48;;;;;;;2.67;1.00;;;1.20;99.90;;;;;;4991852;28;20179;-60
2021/12/02 02:21:17;;;;;;;4.00;1.03;;;1.20;99.90;;;;;;4991066;28;20249;-59
2021/12/02 02:24:01;;;;;;;5.20;1.10;;;1.20;99.90;;;;;;4991563;28;20209;-60
2021/12/02 02:26:31;;;;;;;5.10;1.30;;;1.30;99.90;;;;;;4991443;28;20183;-60
2021/12/02 02:28:58;;;;;;;6.77;0.97;;;1.20;99.90;;;;;;4991636;28;20179;-60
2021/12/02 02:31:27;;;;;;;4.23;1.07;;;1.20;99.90;;;;;;4991548;28;20231;-60
2021/12/02 02:33:53;;;;;;;3.40;1.13;;;1.20;99.90;;;;;;4991630;28;20270;-59
2021/12/02 02:36:22;;;;;;;3.03;1.17;;;1.20;99.90;;;;;;4991397;28;20175;-60
2021/12/02 02:38:58;;;;;;;4.27;1.03;;;1.20;99.90;;;;;;4991495;28;20160;-61
2021/12/02 02:41:34;;;;;;;3.03;1.03;;;1.20;99.90;;;;;;4991515;28;20186;-60
2021/12/02 02:44:01;;;;;;;6.83;1.40;;;1.10;99.90;;;;;;4991632;28;20171;-61
2021/12/02 02:46:31;;;;;;;3.73;1.37;;;1.10;99.90;;;;;;4974143;28;20183;-60
2021/12/02 02:48:59;;;;;;;3.60;1.10;;;1.00;99.90;;;;;;4991527;28;20215;-60
2021/12/02 02:51:26;;;;;;;7.17;1.50;;;1.00;99.90;;;;;;4991211;28;20203;-60
2021/12/02 02:53:56;;;;;;;4.57;1.40;;;1.00;99.90;;;;;;4991312;28;20202;-60
2021/12/02 02:56:25;;;;;;;5.33;1.67;;;1.00;99.90;;;;;;4990921;28;20168;-60
2021/12/02 03:02:15;;;;;;;12.50;1.30;;;1.20;99.90;;;;;;4978281;28;20179;-60
2021/12/02 03:04:48;;;;;;;3.93;1.00;;;1.30;99.90;;;;;;4990728;28;20253;-60
2021/12/02 03:09:54;;;;;;;8.20;1.07;;;1.50;99.90;;;;;;4990592;28;20171;-63
2021/12/02 03:12:35;;;;;;;6.03;1.20;;;1.60;99.90;;;;;;4994314;28;20230;-58
2021/12/02 03:17:28;;;;;;;2.83;0.90;;;1.90;99.90;;;;;;4994055;28;20171;-59
2021/12/02 03:19:54;;;;;;;5.63;1.30;;;1.90;99.90;;;;;;4994051;28;20342;-59
2021/12/02 03:22:20;;;;;;;8.27;1.20;;;1.90;99.90;;;;;;4994249;28;20575;-59
2021/12/02 03:24:46;;;;;;;3.97;1.10;;;1.80;99.90;;;;;;4993961;28;20206;-59
2021/12/02 03:27:12;;;;;;;6.20;1.20;;;1.80;99.90;;;;;;4993593;28;20181;-60
2021/12/02 03:29:39;;;;;;;5.47;1.10;;;1.80;99.90;;;;;;4993135;28;20275;-59
2021/12/02 03:32:05;;;;;;;8.70;1.10;;;1.80;99.90;;;;;;4993727;28;20740;-59
2021/12/02 03:34:31;;;;;;;5.03;1.23;;;1.90;99.90;;;;;;4994452;28;20175;-58
2021/12/02 03:36:57;;;;;;;2.97;1.10;;;1.90;99.90;;;;;;4994310;28;20172;-59
2021/12/02 03:39:25;;;;;;;2.40;0.87;;;1.90;99.90;;;;;;4993849;28;20241;-59
2021/12/02 03:41:52;;;;;;;3.80;0.90;;;1.90;99.90;;;;;;4993587;28;20263;-59
2021/12/02 03:44:18;;;;;;;5.07;0.93;;;1.90;99.90;;;;;;4994164;28;20175;-59
2021/12/02 03:46:44;;;;;;;5.23;1.00;;;1.80;99.90;;;;;;4993981;28;20233;-59
2021/12/02 03:49:10;;;;;;;3.43;1.10;;;1.80;99.90;;;;;;4993898;28;20175;-59
2021/12/02 03:51:37;;;;;;;8.90;1.47;;;1.80;99.90;;;;;;4993928;28;20211;-59
2021/12/02 03:54:03;;;;;;;4.63;1.00;;;1.80;99.90;;;;;;4993909;28;20179;-59
2021/12/02 03:56:29;;;;;;;2.73;0.93;;;1.80;99.90;;;;;;4993855;28;20542;-59
2021/12/02 03:58:55;;;;;;;8.77;1.13;;;1.80;99.90;;;;;;4993864;28;20174;-59
2021/12/02 04:01:22;;;;;;;6.03;1.00;;;1.70;99.90;;;;;;4993858;28;20179;-60
2021/12/02 04:03:48;;;;;;;5.33;1.17;;;1.70;99.90;;;;;;4993833;28;20231;-59
2021/12/02 04:06:14;;;;;;;3.93;1.20;;;1.60;99.90;;;;;;4993835;28;20186;-59
2021/12/02 04:16:18;;;;;;;5.43;0.90;;;1.60;99.90;;;;;;4993358;28;20164;-59
2021/12/02 04:18:44;;;;;;;5.03;0.90;;;1.60;99.90;;;;;;4993372;28;20186;-59
2021/12/02 04:21:10;;;;;;;5.63;1.10;;;1.50;99.90;;;;;;4992834;28;20553;-59
2021/12/02 04:23:35;;;;;;;9.23;1.10;;;1.40;99.90;;;;;;4992675;28;20187;-59
2021/12/02 04:26:01;;;;;;;4.33;1.10;;;1.40;99.90;;;;;;4993029;28;20179;-59
2021/12/02 04:28:27;;;;;;;7.43;1.47;;;1.50;99.90;;;;;;4992967;28;20179;-60
2021/12/02 04:30:53;;;;;;;8.63;1.23;;;1.50;99.90;;;;;;4992998;28;20716;-59
2021/12/02 04:33:19;;;;;;;6.30;1.30;;;1.60;99.90;;;;;;4993112;28;20265;-59
2021/12/02 04:35:44;;;;;;;5.53;1.50;;;1.50;99.90;;;;;;4992536;28;20674;-59
2021/12/02 04:38:10;;;;;;;5.67;1.10;;;1.60;99.90;;;;;;4992736;28;20178;-59
2021/12/02 04:40:40;;;;;;;6.83;1.07;;;1.50;99.90;;;;;;4992920;28;20241;-59
2021/12/02 04:43:06;;;;;;;7.77;1.50;;;1.50;99.90;;;;;;4992816;28;20183;-59
2021/12/02 04:45:32;;;;;;;5.23;1.03;;;1.50;99.90;;;;;;4992847;28;20183;-59
2021/12/02 04:47:58;;;;;;;7.73;1.20;;;1.50;99.90;;;;;;4992817;28;20551;-59
2021/12/02 04:50:24;;;;;;;5.10;1.40;;;1.60;99.90;;;;;;4992093;28;20183;-59
2021/12/02 04:52:50;;;;;;;10.77;1.20;;;1.60;99.90;;;;;;4992580;28;20255;-59
2021/12/02 04:55:16;;;;;;;6.73;1.13;;;1.60;99.90;;;;;;4992349;28;20223;-60
2021/12/02 04:57:42;;;;;;;2.87;0.73;;;1.60;99.90;;;;;;4992668;28;20630;-59
2021/12/02 05:00:08;;;;;;;5.07;1.03;;;1.50;99.90;;;;;;4992650;28;20667;-59
2021/12/02 05:02:34;;;;;;;5.43;1.10;;;1.60;99.90;;;;;;4992027;28;20187;-59
2021/12/02 05:04:59;;;;;;;7.20;1.03;;;1.70;99.90;;;;;;4992044;28;20219;-58
2021/12/02 05:07:25;;;;;;;2.50;1.00;;;1.80;99.90;;;;;;4992207;28;20203;-58
2021/12/02 05:09:51;;;;;;;2.50;1.17;;;1.90;99.90;;;;;;4992171;28;20202;-58
2021/12/02 05:12:17;;;;;;;5.33;1.20;;;1.90;99.90;;;;;;4992359;28;20207;-58
2021/12/02 05:14:42;;;;;;;4.20;1.10;;;1.90;99.90;;;;;;4992276;28;20179;-58
2021/12/02 05:17:08;;;;;;;6.87;1.50;;;1.90;99.90;;;;;;4992268;28;20197;-58
2021/12/02 05:19:34;;;;;;;3.60;1.00;;;2.00;99.90;;;;;;4991810;28;20274;-58
2021/12/02 05:22:00;;;;;;;7.40;1.30;;;2.00;99.90;;;;;;4991572;28;20229;-58
2021/12/02 05:24:26;;;;;;;4.70;1.23;;;2.10;99.90;;;;;;4991974;28;20206;-59
2021/12/02 05:26:52;;;;;;;4.87;1.23;;;2.20;99.90;;;;;;4992064;28;20187;-58
2021/12/02 05:29:17;;;;;;;5.20;1.07;;;2.30;99.90;;;;;;4992076;28;20218;-58
2021/12/02 05:31:43;;;;;;;10.33;1.23;;;2.40;99.90;;;;;;4992020;28;20592;-59
2021/12/02 05:34:09;;;;;;;7.13;1.13;;;2.40;99.90;;;;;;4991791;28;20704;-58
2021/12/02 05:36:35;;;;;;;6.60;1.30;;;2.50;99.90;;;;;;4991850;28;20256;-58
2021/12/02 05:39:00;;;;;;;4.07;1.13;;;2.50;99.90;;;;;;4992068;28;20182;-58
2021/12/02 05:41:28;;;;;;;6.20;1.47;;;2.60;99.90;;;;;;4990862;28;20547;-59
2021/12/02 05:43:54;;;;;;;8.63;1.20;;;2.60;99.90;;;;;;4991984;28;20579;-58
2021/12/02 05:46:20;;;;;;;6.80;1.37;;;2.50;99.90;;;;;;4991903;28;20183;-59
2021/12/02 05:48:46;;;;;;;9.47;1.43;;;2.50;99.90;;;;;;4991809;28;20207;-58
2021/12/02 05:51:11;;;;;;;10.57;1.47;;;2.50;99.90;;;;;;4991792;28;20171;-58
2021/12/02 05:53:37;;;;;;;5.73;1.30;;;2.50;99.90;;;;;;4991648;28;20513;-58
2021/12/02 05:56:03;;;;;;;8.63;1.23;;;2.50;99.90;;;;;;4991558;28;20171;-58
2021/12/02 05:58:29;;;;;;;5.90;1.20;;;2.40;99.90;;;;;;4991771;28;20175;-58
2021/12/02 06:00:55;;;;;;;5.80;1.40;;;2.50;99.90;;;;;;4991797;28;20261;-59
2021/12/02 06:03:20;;;;;;;11.40;1.20;;;2.50;99.90;;;;;;4991229;28;20215;-58
2021/12/02 06:05:47;;;;;;;2.80;1.10;;;2.50;99.90;;;;;;4991625;28;20178;-58
2021/12/02 06:08:14;;;;;;;4.00;1.00;;;2.70;99.90;;;;;;4991744;28;20182;-58
2021/12/02 06:11:17;;;;;;;6.07;1.60;;;2.10;99.90;;;;;;3961589;22;23380;-65
2021/12/02 06:13:45;;;;;;;3.43;0.97;;;2.90;99.90;;;;;;4995164;28;20187;-58
2021/12/02 06:16:11;;;;;;;4.17;1.30;;;2.90;99.90;;;;;;4994417;28;20183;-57
2021/12/02 06:18:37;;;;;;;4.30;0.83;;;3.00;99.90;;;;;;4991154;28;20654;-58
2021/12/02 06:21:03;;;;;;;5.70;1.40;;;3.10;99.90;;;;;;4990548;28;20607;-58
2021/12/02 06:23:29;;;;;;;9.97;1.30;;;3.10;99.90;;;;;;4991129;28;20298;-58
2021/12/02 06:25:55;;;;;;;9.97;2.00;;;3.10;99.90;;;;;;4990902;28;20247;-58
2021/12/02 06:28:20;;;;;;;8.13;1.33;;;3.10;99.90;;;;;;4991158;28;20539;-58
2021/12/02 06:30:47;;;;;;;6.20;1.13;;;3.20;99.90;;;;;;4991278;28;20625;-58
2021/12/02 06:33:15;;;;;;;5.70;1.33;;;3.20;99.90;;;;;;4991336;28;20190;-58
2021/12/02 06:35:41;;;;;;;5.70;1.37;;;3.20;99.90;;;;;;4991190;28;20171;-58
2021/12/02 06:38:08;;;;;;;5.90;1.33;;;3.20;99.90;;;;;;4991452;28;20180;-58
2021/12/02 06:40:34;;;;;;;6.87;1.37;;;3.20;99.90;;;;;;4991391;28;20171;-57
2021/12/02 06:43:02;;;;;;;7.50;1.30;;;3.20;99.90;;;;;;4991161;28;20287;-57
2021/12/02 06:45:27;;;;;;;5.57;1.20;;;3.30;99.90;;;;;;4992495;28;20198;-57
2021/12/02 06:47:58;;;;;;;5.23;1.50;;;3.30;99.90;;;;;;4994971;28;20207;-57
2021/12/02 06:50:24;;;;;;;6.27;1.40;;;3.30;99.90;;;;;;4995171;28;20180;-57
2021/12/02 06:52:52;;;;;;;3.13;1.43;;;3.40;99.90;;;;;;4994895;28;20564;-58
2021/12/02 06:55:18;;;;;;;3.87;1.00;;;3.40;99.90;;;;;;4994817;28;20175;-58
2021/12/02 06:57:44;;;;;;;5.30;1.03;;;3.40;99.90;;;;;;4994728;28;20586;-59
2021/12/02 07:00:13;;;;;;;6.97;1.03;;;3.50;99.90;;;;;;4994558;28;20259;-58
2021/12/02 07:02:39;;;;;;;4.57;0.90;;;3.50;99.90;;;;;;4994474;28;20265;-59
2021/12/02 07:05:08;;;;;;;9.13;1.90;;;3.50;99.90;;;;;;4994754;28;20164;-58
2021/12/02 07:07:36;;;;;;;8.70;1.73;;;3.50;99.90;;;;;;4994461;28;20187;-57
2021/12/02 07:10:07;;;;;;;4.90;0.90;;;3.60;99.90;;;;;;4994295;28;20672;-59
2021/12/02 07:12:33;;;;;;;4.90;1.00;;;3.50;99.90;;;;;;5011049;28;20314;-59
2021/12/02 07:15:07;;;;;;;4.70;0.97;;;3.60;99.90;;;;;;5033471;28;20178;-59
2021/12/02 07:17:33;;;;;;;3.77;1.20;;;3.60;99.90;;;;;;5033536;28;20595;-59
2021/12/02 07:20:01;;;;;;;6.47;0.90;;;3.70;99.90;;;;;;5034418;28;20636;-59
2021/12/02 07:22:27;;;;;;;11.07;0.90;;;3.70;99.90;;;;;;5032959;28;20255;-59
2021/12/02 07:24:53;;;;;;;4.73;0.97;;;3.60;99.90;;;;;;5033216;28;20196;-60
2021/12/02 07:27:18;;;;;;;6.27;1.67;;;3.60;99.90;;;;;;5033384;28;20647;-59
2021/12/02 07:29:45;;;;;;;6.57;1.20;;;3.70;99.90;;;;;;5033488;28;20178;-59
2021/12/02 07:32:11;;;;;;;4.67;1.30;;;3.70;99.90;;;;;;5033452;28;20169;-59
2021/12/02 07:34:43;;;;;;;7.90;1.37;;;3.70;99.90;;;;;;5033512;28;20173;-59
2021/12/02 07:37:18;;;;;;;7.67;1.50;;;3.70;99.90;;;;;;5034972;28;20184;-59
2021/12/02 07:39:45;;;;;;;5.10;1.10;;;3.80;99.90;;;;;;5053021;28;20169;-59
2021/12/02 07:42:11;;;;;;;3.13;1.10;;;3.80;99.90;;;;;;5032001;28;20281;-63
2021/12/02 07:44:37;;;;;;;4.30;1.20;;;3.90;99.90;;;;;;5032797;28;20182;-62
2021/12/02 07:47:05;;;;;;;9.20;1.27;;;3.90;99.90;;;;;;5015128;28;20178;-62
2021/12/02 07:49:31;;;;;;;4.97;1.47;;;4.00;99.90;;;;;;5033186;28;20175;-62
2021/12/02 07:52:00;;;;;;;12.67;1.50;;;4.00;99.90;;;;;;5033113;28;20170;-62
2021/12/02 07:54:27;;;;;;;7.37;1.00;;;4.00;99.90;;;;;;5032927;28;20652;-63
2021/12/02 07:56:53;;;;;;;5.43;1.30;;;4.10;99.90;;;;;;5031809;28;20189;-61
2021/12/02 07:59:20;;;;;;;5.03;0.87;;;4.20;99.90;;;;;;5032680;28;20186;-61
2021/12/02 08:01:46;;;;;;;10.87;0.90;;;4.20;99.90;;;;;;5032506;28;20212;-61
2021/12/02 08:04:13;;;;;;;4.20;0.90;;;4.20;99.90;;;;;;5032203;28;20173;-62
2021/12/02 08:06:39;;;;;;;5.00;1.00;;;4.20;99.90;;;;;;5033043;28;20269;-61
2021/12/02 08:09:06;;;;;;;9.93;1.00;;;4.10;99.90;;;;;;5014860;28;20269;-61
2021/12/02 08:11:33;;;;;;;3.97;0.97;;;4.10;99.90;;;;;;5031751;28;20178;-61
2021/12/02 08:13:59;;;;;;;7.13;1.30;;;4.00;99.90;;;;;;5032517;28;20178;-61
2021/12/02 08:16:25;;;;;;;9.37;1.47;;;3.90;99.90;;;;;;5032723;28;20204;-62
2021/12/02 08:18:51;;;;;;;4.90;1.27;;;3.90;99.90;;;;;;5031847;28;20198;-62
2021/12/02 08:21:17;;;;;;;2.40;1.00;;;3.90;99.90;;;;;;5013574;28;20216;-62
2021/12/02 08:23:43;;;;;;;11.27;1.00;;;4.70;99.90;;;;;;5032080;28;20189;-62
2021/12/02 08:26:11;;;;;;;6.67;1.27;;;3.90;99.90;;;;;;5032517;28;20712;-60
2021/12/02 08:28:37;;;;;;;4.77;0.90;;;3.90;99.90;;;;;;5032473;28;20174;-62
2021/12/02 08:31:03;;;;;;;5.93;0.90;;;3.90;99.90;;;;;;5032138;28;20197;-60
2021/12/02 08:33:29;;;;;;;4.60;0.90;;;4.10;99.90;;;;;;5032257;28;20691;-60
2021/12/02 08:35:55;;;;;;;3.37;1.00;;;4.10;99.90;;;;;;5032197;28;20717;-63
2021/12/02 08:38:29;;;;;;;4.77;1.13;;;4.20;99.90;;;;;;5032444;28;20228;-63
2021/12/02 08:40:57;;;;;;;9.30;1.10;;;4.30;99.90;;;;;;5032287;28;20181;-63
2021/12/02 08:43:22;;;;;;;4.37;1.10;;;5.10;99.90;;;;;;5031496;28;20206;-60
2021/12/02 08:45:48;;;;;;;10.03;0.90;;;5.20;99.90;;;;;;5032144;28;20166;-58
2021/12/02 08:48:14;;;;;;;7.47;1.10;;;5.40;99.90;;;;;;5031990;28;20635;-58
2021/12/02 08:50:40;;;;;;;9.63;1.20;;;5.40;99.90;;;;;;5031328;28;20256;-59
2021/12/02 08:53:08;;;;;;;7.40;1.27;;;5.20;99.90;;;;;;5030818;28;20185;-58
2021/12/02 08:55:34;;;;;;;5.10;1.07;;;5.20;99.90;;;;;;5031300;28;20178;-58
2021/12/02 08:58:01;;;;;;;1.97;0.80;;;5.20;99.90;;;;;;5031819;28;20181;-58
2021/12/02 09:00:33;;;;;;;7.17;1.10;;;5.30;99.90;;;;;;5031774;28;20169;-58
2021/12/02 09:02:59;;;;;;;4.20;1.10;;;5.50;99.90;;;;;;5031501;28;20204;-58
2021/12/02 09:05:25;;;;;;;5.70;1.07;;;5.60;99.90;;;;;;5031478;28;20166;-58
2021/12/02 09:07:51;;;;;;;6.57;0.77;;;5.70;99.90;;;;;;5031282;28;20643;-57
2021/12/02 09:10:21;;;;;;;4.17;0.80;;;6.20;99.90;;;;;;5031628;28;20178;-58
2021/12/02 09:12:48;;;;;;;7.03;0.80;;;6.10;99.90;;;;;;5030684;28;20209;-58
2021/12/02 09:15:15;;;;;;;3.67;0.77;;;6.50;99.90;;;;;;5030962;28;20192;-60
2021/12/02 09:17:40;;;;;;;6.03;1.00;;;6.50;99.90;;;;;;5030423;28;20189;-58
2021/12/02 09:20:09;;;;;;;2.60;0.50;;;6.40;99.90;;;;;;5031708;28;20635;-58
2021/12/02 09:22:36;;;;;;;2.77;0.70;;;6.20;99.90;;;;;;5030298;28;20686;-60
2021/12/02 09:25:04;;;;;;;3.40;0.40;;;6.20;99.90;;;;;;5031748;28;20286;-60
2021/12/02 09:27:30;;;;;;;4.23;0.47;;;6.70;99.90;;;;;;5034433;28;20197;-60
2021/12/02 09:29:55;;;;;;;6.40;0.80;;;6.60;99.90;;;;;;5031096;28;20200;-58
2021/12/02 09:32:21;;;;;;;5.13;0.70;;;7.30;99.90;;;;;;5031064;28;20205;-58
2021/12/02 09:34:47;;;;;;;5.73;0.60;;;6.90;99.90;;;;;;5031151;28;20170;-60
2021/12/02 09:37:13;;;;;;;2.00;0.30;;;7.00;99.90;;;;;;5031257;28;20547;-60
2021/12/02 09:39:39;;;;;;;2.37;0.57;;;7.60;99.90;;;;;;5031035;28;20209;-60
2021/12/02 09:42:09;;;;;;;3.27;0.50;;;6.80;99.90;;;;;;5031008;28;20245;-60
2021/12/02 09:44:36;;;;;;;5.03;0.50;;;6.50;99.90;;;;;;5030557;28;20178;-60
2021/12/02 09:47:01;;;;;;;3.07;0.60;;;6.30;99.90;;;;;;5029419;28;20534;-60
2021/12/02 09:49:27;;;;;;;4.80;1.07;;;6.20;99.90;;;;;;5029024;28;20177;-60
2021/12/02 09:54:25;;;;;;;5.70;0.70;;;6.20;99.90;;;;;;5030997;28;20162;-60
2021/12/02 09:56:55;;;;;;;2.53;0.60;;;6.10;99.90;;;;;;5030903;28;20200;-59
2021/12/02 09:59:26;;;;;;;3.23;0.70;;;6.20;99.90;;;;;;5030757;28;20167;-60
2021/12/02 10:01:59;;;;;;;3.50;0.80;;;6.10;99.90;;;;;;5030667;28;20205;-60
2021/12/02 10:04:27;;;;;;;6.03;0.77;;;6.10;99.90;;;;;;5022849;28;20178;-60
2021/12/02 10:07:24;;;;;;;7.47;0.70;;;6.10;99.90;;;;;;5001345;28;20257;-60
2021/12/02 10:10:17;;;;;;;2.73;0.70;;;6.10;99.90;;;;;;5029364;28;20170;-60
2021/12/02 10:16:07;;;;;;;9.07;0.60;;;6.40;99.90;;;;;;5030704;28;20640;-60
2021/12/02 10:19:03;;;;;;;2.20;0.40;;;6.50;99.90;;;;;;5012931;28;20165;-60
2021/12/02 10:24:09;;;;;;;2.33;0.60;;;6.40;99.90;;;;;;5034718;28;20173;-60
2021/12/02 10:26:41;;;;;;;6.13;0.60;;;6.50;99.90;;;;;;5022709;28;20519;-59
2021/12/02 10:29:10;;;;;;;2.77;0.30;;;6.80;99.90;;;;;;5017844;28;20522;-59
2021/12/02 10:31:37;;;;;;;6.30;0.50;;;7.10;99.90;;;;;;5024005;28;20232;-57
2021/12/02 10:34:04;;;;;;;3.70;0.87;;;7.20;99.90;;;;;;5014560;28;20225;-60
2021/12/02 10:36:36;;;;;;;9.13;0.77;;;7.30;99.90;;;;;;5014068;28;20221;-57
2021/12/02 10:39:13;;;;;;;4.87;0.80;;;7.40;99.90;;;;;;5014530;28;20676;-57
2021/12/02 10:41:44;;;;;;;4.90;0.50;;;7.10;99.90;;;;;;4996913;28;20166;-58
2021/12/02 10:44:24;;;;;;;4.27;0.50;;;7.30;99.90;;;;;;5014420;28;20218;-57
2021/12/02 10:47:06;;;;;;;3.80;0.60;;;7.70;99.90;;;;;;5014464;28;20182;-58
2021/12/02 10:49:52;;;;;;;1.60;0.53;;;7.60;99.90;;;;;;5014102;28;20184;-58
2021/12/02 10:52:22;;;;;;;3.03;0.60;;;7.80;99.90;;;;;;5014036;28;20174;-58
2021/12/02 10:54:55;;;;;;;2.97;0.60;;;8.00;99.90;;;;;;5014097;28;20230;-57
2021/12/02 10:57:27;;;;;;;3.47;0.60;;;8.50;99.90;;;;;;5014173;28;20170;-57
2021/12/02 10:59:54;;;;;;;5.97;0.50;;;8.60;99.90;;;;;;5013984;28;20175;-58
2021/12/02 11:02:28;;;;;;;0.90;0.40;;;9.00;99.90;;;;;;5014284;28;20297;-58
2021/12/02 11:05:03;;;;;;;3.37;0.63;;;8.90;99.90;;;;;;5013195;28;20178;-58
2021/12/02 11:07:34;;;;;;;1.37;0.50;;;9.70;99.90;;;;;;5013944;28;20273;-57
2021/12/02 11:10:04;;;;;;;6.57;0.80;;;9.80;99.90;;;;;;5013771;28;20175;-59
2021/12/02 11:12:35;;;;;;;3.03;0.57;;;10.30;99.90;;;;;;5018984;28;20976;-59
2021/12/02 11:15:07;;;;;;;9.93;0.83;;;9.90;99.90;;;;;;5033466;28;20174;-59
2021/12/02 11:17:43;;;;;;;4.73;0.60;;;10.40;99.90;;;;;;5033624;28;20174;-59
2021/12/02 11:20:19;;;;;;;2.53;0.77;;;10.60;99.90;;;;;;5033096;28;20174;-59
2021/12/02 11:22:45;;;;;;;4.00;0.60;;;10.10;99.90;;;;;;5032685;28;20255;-59
2021/12/02 11:25:12;;;;;;;3.70;0.73;;;11.10;99.90;;;;;;5032972;28;20174;-59
2021/12/02 11:27:45;;;;;;;9.20;1.60;;;11.00;99.90;;;;;;5033400;28;20158;-59
2021/12/02 11:30:18;;;;;;;4.22;0.80;;;11.80;99.90;;;;;;5015415;28;20212;-59
2021/12/02 11:32:47;;;;;;;5.25;0.90;;;12.40;99.90;;;;;;5013327;28;20178;-60
2021/12/02 11:35:18;;;;;;;5.30;1.20;;;12.80;99.90;;;;;;5013434;28;20224;-59
2021/12/02 11:37:51;;;;;;;7.53;1.48;;;13.30;99.90;;;;;;5013364;28;20188;-59
2021/12/02 11:40:23;;;;;;;2.92;0.82;;;12.90;99.90;;;;;;5013169;28;20236;-60
2021/12/02 11:42:50;;;;;;;5.97;1.20;;;12.90;99.90;;;;;;5012510;28;20234;-60
2021/12/02 11:45:18;;;;;;;4.72;1.05;;;13.40;99.90;;;;;;5013346;28;20171;-59
2021/12/02 11:47:44;;;;;;;5.07;0.93;;;13.70;99.90;;;;;;5013333;28;20265;-61
2021/12/02 11:50:13;;;;;;;2.67;0.90;;;13.70;99.90;;;;;;5013170;28;20186;-61
2021/12/02 11:52:40;;;;;;;6.20;1.02;;;12.90;99.90;;;;;;5012971;28;20711;-60
2021/12/02 11:55:13;;;;;;;3.40;1.27;;;12.40;99.90;;;;;;5013137;28;20170;-60
2021/12/02 11:57:40;;;;;;;2.88;0.90;;;13.50;99.90;;;;;;5012756;28;20213;-60
2021/12/02 12:00:10;;;;;;;6.03;0.95;;;13.60;99.90;;;;;;5011009;28;20174;-60
2021/12/02 12:02:38;;;;;;;5.75;0.90;;;14.30;99.90;;;;;;5011897;28;20289;-60
2021/12/02 12:05:06;;;;;;;3.65;0.95;;;13.90;99.90;;;;;;5012790;28;20246;-60
2021/12/02 12:07:46;;;;;;;6.95;1.27;;;13.20;99.90;;;;;;5019166;28;20640;-60
2021/12/02 12:10:17;;;;;;;3.00;1.13;;;14.00;99.90;;;;;;5032170;28;20247;-61
2021/12/02 12:12:44;;;;;;;8.10;4.07;;;13.80;99.90;;;;;;5032012;28;20267;-61
2021/12/02 12:15:32;;;;;;;5.03;1.13;;;13.60;99.90;;;;;;5032460;28;20192;-60
2021/12/02 12:17:59;;;;;;;2.53;0.82;;;14.10;99.90;;;;;;5031878;28;20636;-60
2021/12/02 12:20:52;;;;;;;3.83;1.00;;;13.00;99.90;;;;;;5032310;28;20671;-60
2021/12/02 12:23:58;;;;;;;3.63;1.10;;;12.80;99.90;;;;;;5031872;28;20752;-60
2021/12/02 12:26:31;;;;;;;5.15;1.40;;;13.20;99.90;;;;;;5023932;28;20189;-60
2021/12/02 12:29:03;;;;;;;5.88;1.20;;;12.70;99.90;;;;;;5032376;28;20186;-60
2021/12/02 12:31:39;;;;;;;3.85;1.00;;;12.40;99.90;;;;;;5032167;28;20256;-61
2021/12/02 12:34:30;;;;;;;3.70;1.17;;;13.30;99.90;;;;;;5032353;28;20223;-60
2021/12/02 12:37:28;;;;;;;7.43;1.10;;;14.30;99.90;;;;;;5032138;28;20176;-60
2021/12/02 12:40:15;;;;;;;8.02;2.60;;;15.00;99.90;;;;;;5031592;28;20166;-60
2021/12/02 12:42:51;;;;;;;4.60;1.00;;;15.10;99.90;;;;;;5029364;28;20202;-60
2021/12/02 12:45:36;;;;;;;3.25;1.00;;;14.90;99.90;;;;;;5030131;28;20268;-60
2021/12/02 12:48:05;;;;;;;3.50;0.85;;;15.10;99.90;;;;;;5030092;28;20177;-61
2021/12/02 12:50:37;;;;;;;4.82;1.08;;;13.00;99.90;;;;;;5029974;28;20173;-60
2021/12/02 12:53:02;;;;;;;4.50;0.95;;;12.80;99.90;;;;;;5029830;28;20178;-61
2021/12/02 12:55:29;;;;;;;4.78;1.02;;;13.40;99.90;;;;;;5030447;28;20174;-61
2021/12/02 12:58:14;;;;;;;4.80;1.15;;;14.90;99.90;;;;;;5031771;28;20174;-61
2021/12/02 13:00:44;;;;;;;8.73;1.83;;;15.20;99.90;;;;;;5031716;28;20212;-61
2021/12/02 13:03:16;;;;;;;9.68;1.23;;;14.80;99.90;;;;;;5031553;28;20209;-61
2021/12/02 13:05:47;;;;;;;5.97;0.90;;;14.70;99.90;;;;;;5031713;28;20334;-61
2021/12/02 13:08:17;;;;;;;5.95;1.30;;;14.50;99.90;;;;;;5031366;28;20208;-61
2021/12/02 13:11:00;;;;;;;5.95;1.02;;;14.90;99.90;;;;;;5031645;28;20185;-60
2021/12/02 13:13:32;;;;;;;3.42;0.88;;;15.00;99.90;;;;;;5031194;28;20576;-60
2021/12/02 13:16:16;;;;;;;5.88;1.10;;;15.10;99.90;;;;;;5031454;28;20249;-61
2021/12/02 13:18:45;;;;;;;11.57;1.38;;;15.80;99.90;;;;;;5031268;28;20186;-61
2021/12/02 13:21:21;;;;;;;4.25;1.33;;;16.30;99.90;;;;;;5031460;28;20188;-62
2021/12/02 13:24:06;;;;;;;3.67;1.10;;;16.30;99.90;;;;;;5031259;28;20224;-62
2021/12/02 13:26:52;;;;;;;7.38;1.05;;;16.20;99.90;;;;;;5013461;28;20184;-62
2021/12/02 13:29:23;;;;;;;5.25;0.95;;;14.90;99.90;;;;;;5031389;28;20198;-61
2021/12/02 13:31:58;;;;;;;7.15;1.27;;;14.50;99.90;;;;;;5031156;28;20170;-62
2021/12/02 13:34:26;;;;;;;3.40;0.80;;;14.80;99.90;;;;;;5030858;28;20260;-61